sensor_id;sensor_type;location;lat;lon;timestamp;P1;durP1;ratioP1;P2;durP2;ratioP2
10529;SDS011;5313;48.834;9.228;2023-04-03T00:00:59;3.17;;;2.63;;
10529;SDS011;5313;48.834;9.228;2023-04-03T00:03:25;3.63;;;2.30;;
10529;SDS011;5313;48.834;9.228;2023-04-03T00:05:51;3.07;;;2.43;;
10529;SDS011;5313;48.834;9.228;2023-04-03T00:08:17;2.90;;;2.30;;
10529;SDS011;5313;48.834;9.228;2023-04-03T00:10:42;5.33;;;2.70;;
10529;SDS011;5313;48.834;9.228;2023-04-03T00:13:08;3.57;;;2.30;;
10529;SDS011;5313;48.834;9.228;2023-04-03T00:15:35;3.80;;;2.40;;
10529;SDS011;5313;48.834;9.228;2023-04-03T00:18:02;3.37;;;2.40;;
10529;SDS011;5313;48.834;9.228;2023-04-03T00:20:28;2.90;;;2.30;;
10529;SDS011;5313;48.834;9.228;2023-04-03T00:22:54;3.20;;;2.40;;
10529;SDS011;5313;48.834;9.228;2023-04-03T00:25:19;3.03;;;2.50;;
10529;SDS011;5313;48.834;9.228;2023-04-03T00:27:45;3.60;;;2.33;;
10529;SDS011;5313;48.834;9.228;2023-04-03T00:30:13;3.87;;;2.27;;
10529;SDS011;5313;48.834;9.228;2023-04-03T00:32:40;3.97;;;2.60;;
10529;SDS011;5313;48.834;9.228;2023-04-03T00:35:05;3.23;;;2.17;;
10529;SDS011;5313;48.834;9.228;2023-04-03T00:37:31;3.30;;;2.53;;
10529;SDS011;5313;48.834;9.228;2023-04-03T00:39:57;3.83;;;2.10;;
10529;SDS011;5313;48.834;9.228;2023-04-03T00:42:23;2.80;;;2.27;;
10529;SDS011;5313;48.834;9.228;2023-04-03T00:47:15;3.70;;;2.63;;
10529;SDS011;5313;48.834;9.228;2023-04-03T00:49:42;2.90;;;2.47;;
10529;SDS011;5313;48.834;9.228;2023-04-03T00:52:10;3.20;;;2.70;;
10529;SDS011;5313;48.834;9.228;2023-04-03T00:54:40;2.97;;;2.43;;
10529;SDS011;5313;48.834;9.228;2023-04-03T00:57:07;3.17;;;2.70;;
10529;SDS011;5313;48.834;9.228;2023-04-03T00:59:34;4.17;;;2.57;;
10529;SDS011;5313;48.834;9.228;2023-04-03T01:02:05;3.33;;;2.27;;
10529;SDS011;5313;48.834;9.228;2023-04-03T01:04:31;3.80;;;2.63;;
10529;SDS011;5313;48.834;9.228;2023-04-03T01:07:06;4.20;;;2.43;;
10529;SDS011;5313;48.834;9.228;2023-04-03T01:09:44;3.77;;;2.80;;
10529;SDS011;5313;48.834;9.228;2023-04-03T01:12:15;4.27;;;2.63;;
10529;SDS011;5313;48.834;9.228;2023-04-03T01:14:43;3.07;;;2.70;;
10529;SDS011;5313;48.834;9.228;2023-04-03T01:25:35;4.87;;;2.33;;
10529;SDS011;5313;48.834;9.228;2023-04-03T01:28:04;4.10;;;2.60;;
10529;SDS011;5313;48.834;9.228;2023-04-03T01:30:31;3.43;;;2.90;;
10529;SDS011;5313;48.834;9.228;2023-04-03T01:32:59;3.97;;;2.40;;
10529;SDS011;5313;48.834;9.228;2023-04-03T01:35:25;4.27;;;2.90;;
10529;SDS011;5313;48.834;9.228;2023-04-03T01:37:50;3.37;;;2.50;;
10529;SDS011;5313;48.834;9.228;2023-04-03T01:40:16;5.40;;;2.70;;
10529;SDS011;5313;48.834;9.228;2023-04-03T01:42:42;4.33;;;2.70;;
10529;SDS011;5313;48.834;9.228;2023-04-03T01:45:07;4.17;;;2.80;;
10529;SDS011;5313;48.834;9.228;2023-04-03T01:47:33;4.43;;;3.10;;
10529;SDS011;5313;48.834;9.228;2023-04-03T01:49:59;3.70;;;3.00;;
10529;SDS011;5313;48.834;9.228;2023-04-03T01:52:24;4.53;;;2.87;;
10529;SDS011;5313;48.834;9.228;2023-04-03T01:54:50;3.20;;;2.43;;
10529;SDS011;5313;48.834;9.228;2023-04-03T01:57:15;3.40;;;2.57;;
10529;SDS011;5313;48.834;9.228;2023-04-03T01:59:41;4.07;;;2.53;;
10529;SDS011;5313;48.834;9.228;2023-04-03T02:02:07;7.33;;;2.83;;
10529;SDS011;5313;48.834;9.228;2023-04-03T02:04:32;8.00;;;2.57;;
10529;SDS011;5313;48.834;9.228;2023-04-03T02:06:58;4.87;;;2.67;;
10529;SDS011;5313;48.834;9.228;2023-04-03T02:09:23;3.43;;;2.50;;
10529;SDS011;5313;48.834;9.228;2023-04-03T02:11:49;3.40;;;2.53;;
10529;SDS011;5313;48.834;9.228;2023-04-03T02:14:15;3.97;;;2.63;;
10529;SDS011;5313;48.834;9.228;2023-04-03T02:16:40;2.83;;;2.53;;
10529;SDS011;5313;48.834;9.228;2023-04-03T02:19:06;3.13;;;2.37;;
10529;SDS011;5313;48.834;9.228;2023-04-03T02:21:31;3.77;;;2.87;;
10529;SDS011;5313;48.834;9.228;2023-04-03T02:23:57;3.47;;;2.40;;
10529;SDS011;5313;48.834;9.228;2023-04-03T02:26:22;4.07;;;2.57;;
10529;SDS011;5313;48.834;9.228;2023-04-03T02:28:48;4.37;;;2.53;;
10529;SDS011;5313;48.834;9.228;2023-04-03T02:31:13;4.47;;;2.40;;
10529;SDS011;5313;48.834;9.228;2023-04-03T02:33:41;3.03;;;2.50;;
10529;SDS011;5313;48.834;9.228;2023-04-03T02:36:07;3.03;;;2.53;;
10529;SDS011;5313;48.834;9.228;2023-04-03T02:38:33;3.77;;;2.30;;
10529;SDS011;5313;48.834;9.228;2023-04-03T02:41:03;3.17;;;2.30;;
10529;SDS011;5313;48.834;9.228;2023-04-03T02:43:31;2.93;;;2.27;;
10529;SDS011;5313;48.834;9.228;2023-04-03T02:45:57;2.80;;;2.13;;
10529;SDS011;5313;48.834;9.228;2023-04-03T02:48:22;4.03;;;2.40;;
10529;SDS011;5313;48.834;9.228;2023-04-03T02:50:48;3.87;;;2.40;;
10529;SDS011;5313;48.834;9.228;2023-04-03T02:53:14;3.33;;;2.40;;
10529;SDS011;5313;48.834;9.228;2023-04-03T02:55:40;3.13;;;2.60;;
10529;SDS011;5313;48.834;9.228;2023-04-03T02:58:06;5.80;;;2.20;;
10529;SDS011;5313;48.834;9.228;2023-04-03T03:00:32;2.63;;;2.20;;
10529;SDS011;5313;48.834;9.228;2023-04-03T03:02:57;4.57;;;2.37;;
10529;SDS011;5313;48.834;9.228;2023-04-03T03:05:23;3.60;;;2.30;;
10529;SDS011;5313;48.834;9.228;2023-04-03T03:07:48;4.27;;;2.00;;
10529;SDS011;5313;48.834;9.228;2023-04-03T03:10:14;2.77;;;2.37;;
10529;SDS011;5313;48.834;9.228;2023-04-03T03:12:40;2.83;;;1.90;;
10529;SDS011;5313;48.834;9.228;2023-04-03T03:15:06;2.83;;;2.20;;
10529;SDS011;5313;48.834;9.228;2023-04-03T03:17:32;2.40;;;2.07;;
10529;SDS011;5313;48.834;9.228;2023-04-03T03:19:58;2.70;;;2.17;;
10529;SDS011;5313;48.834;9.228;2023-04-03T03:22:23;2.30;;;2.00;;
10529;SDS011;5313;48.834;9.228;2023-04-03T03:24:51;2.40;;;1.90;;
10529;SDS011;5313;48.834;9.228;2023-04-03T03:27:16;2.67;;;1.90;;
10529;SDS011;5313;48.834;9.228;2023-04-03T03:29:42;2.37;;;1.90;;
10529;SDS011;5313;48.834;9.228;2023-04-03T03:32:07;3.27;;;2.10;;
10529;SDS011;5313;48.834;9.228;2023-04-03T03:34:33;3.23;;;1.93;;
10529;SDS011;5313;48.834;9.228;2023-04-03T03:36:58;4.50;;;2.70;;
10529;SDS011;5313;48.834;9.228;2023-04-03T03:39:24;3.67;;;2.20;;
10529;SDS011;5313;48.834;9.228;2023-04-03T03:41:51;4.83;;;2.13;;
10529;SDS011;5313;48.834;9.228;2023-04-03T03:44:18;2.50;;;2.20;;
10529;SDS011;5313;48.834;9.228;2023-04-03T03:46:44;3.27;;;2.40;;
10529;SDS011;5313;48.834;9.228;2023-04-03T03:49:10;3.10;;;2.50;;
10529;SDS011;5313;48.834;9.228;2023-04-03T03:51:36;2.10;;;1.90;;
10529;SDS011;5313;48.834;9.228;2023-04-03T03:54:02;3.60;;;2.20;;
10529;SDS011;5313;48.834;9.228;2023-04-03T03:56:28;3.43;;;2.43;;
10529;SDS011;5313;48.834;9.228;2023-04-03T03:58:54;2.47;;;2.20;;
10529;SDS011;5313;48.834;9.228;2023-04-03T04:01:21;2.20;;;2.00;;
10529;SDS011;5313;48.834;9.228;2023-04-03T04:03:47;3.43;;;2.40;;
10529;SDS011;5313;48.834;9.228;2023-04-03T04:06:13;4.00;;;2.33;;
10529;SDS011;5313;48.834;9.228;2023-04-03T04:08:38;3.97;;;2.20;;
10529;SDS011;5313;48.834;9.228;2023-04-03T04:11:04;3.93;;;2.40;;
10529;SDS011;5313;48.834;9.228;2023-04-03T04:13:29;3.70;;;2.37;;
10529;SDS011;5313;48.834;9.228;2023-04-03T04:15:55;3.43;;;2.20;;
10529;SDS011;5313;48.834;9.228;2023-04-03T04:18:20;2.23;;;2.00;;
10529;SDS011;5313;48.834;9.228;2023-04-03T04:20:47;3.27;;;2.57;;
10529;SDS011;5313;48.834;9.228;2023-04-03T04:23:13;2.63;;;2.00;;
10529;SDS011;5313;48.834;9.228;2023-04-03T04:25:39;3.77;;;2.00;;
10529;SDS011;5313;48.834;9.228;2023-04-03T04:28:04;3.27;;;2.40;;
10529;SDS011;5313;48.834;9.228;2023-04-03T04:30:30;2.40;;;2.07;;
10529;SDS011;5313;48.834;9.228;2023-04-03T04:32:55;3.40;;;2.20;;
10529;SDS011;5313;48.834;9.228;2023-04-03T04:35:21;2.90;;;2.10;;
10529;SDS011;5313;48.834;9.228;2023-04-03T04:37:46;2.27;;;2.03;;
10529;SDS011;5313;48.834;9.228;2023-04-03T04:40:12;2.33;;;2.07;;
10529;SDS011;5313;48.834;9.228;2023-04-03T04:42:38;3.57;;;2.00;;
10529;SDS011;5313;48.834;9.228;2023-04-03T04:45:03;3.20;;;2.20;;
10529;SDS011;5313;48.834;9.228;2023-04-03T04:47:29;2.33;;;2.13;;
10529;SDS011;5313;48.834;9.228;2023-04-03T04:49:55;2.63;;;2.20;;
10529;SDS011;5313;48.834;9.228;2023-04-03T04:52:20;2.60;;;2.33;;
10529;SDS011;5313;48.834;9.228;2023-04-03T04:54:46;3.97;;;2.40;;
10529;SDS011;5313;48.834;9.228;2023-04-03T04:57:11;4.10;;;2.10;;
10529;SDS011;5313;48.834;9.228;2023-04-03T04:59:37;2.10;;;1.90;;
10529;SDS011;5313;48.834;9.228;2023-04-03T05:02:02;3.10;;;2.10;;
10529;SDS011;5313;48.834;9.228;2023-04-03T05:04:28;2.93;;;2.20;;
10529;SDS011;5313;48.834;9.228;2023-04-03T05:06:53;1.90;;;1.70;;
10529;SDS011;5313;48.834;9.228;2023-04-03T05:09:19;2.43;;;2.00;;
10529;SDS011;5313;48.834;9.228;2023-04-03T05:11:45;2.70;;;2.20;;
10529;SDS011;5313;48.834;9.228;2023-04-03T05:14:11;3.30;;;2.30;;
10529;SDS011;5313;48.834;9.228;2023-04-03T05:16:36;2.93;;;2.33;;
10529;SDS011;5313;48.834;9.228;2023-04-03T05:19:02;3.70;;;2.20;;
10529;SDS011;5313;48.834;9.228;2023-04-03T05:21:28;3.43;;;2.07;;
10529;SDS011;5313;48.834;9.228;2023-04-03T05:23:57;3.00;;;2.30;;
10529;SDS011;5313;48.834;9.228;2023-04-03T05:26:24;3.60;;;2.40;;
10529;SDS011;5313;48.834;9.228;2023-04-03T05:28:51;4.07;;;2.50;;
10529;SDS011;5313;48.834;9.228;2023-04-03T05:31:17;2.90;;;2.30;;
10529;SDS011;5313;48.834;9.228;2023-04-03T05:33:42;4.40;;;2.37;;
10529;SDS011;5313;48.834;9.228;2023-04-03T05:36:08;4.33;;;2.10;;
10529;SDS011;5313;48.834;9.228;2023-04-03T05:38:34;3.63;;;2.20;;
10529;SDS011;5313;48.834;9.228;2023-04-03T05:40:59;4.40;;;2.40;;
10529;SDS011;5313;48.834;9.228;2023-04-03T05:43:25;2.97;;;2.10;;
10529;SDS011;5313;48.834;9.228;2023-04-03T05:45:51;3.77;;;2.23;;
10529;SDS011;5313;48.834;9.228;2023-04-03T05:48:17;4.27;;;2.10;;
10529;SDS011;5313;48.834;9.228;2023-04-03T05:50:42;3.23;;;1.90;;
10529;SDS011;5313;48.834;9.228;2023-04-03T05:53:17;3.90;;;2.03;;
10529;SDS011;5313;48.834;9.228;2023-04-03T05:55:49;3.07;;;2.30;;
10529;SDS011;5313;48.834;9.228;2023-04-03T05:58:15;2.03;;;1.83;;
10529;SDS011;5313;48.834;9.228;2023-04-03T06:00:40;2.33;;;2.00;;
10529;SDS011;5313;48.834;9.228;2023-04-03T06:03:06;3.87;;;2.07;;
10529;SDS011;5313;48.834;9.228;2023-04-03T06:05:32;2.77;;;2.10;;
10529;SDS011;5313;48.834;9.228;2023-04-03T06:07:57;2.40;;;2.10;;
10529;SDS011;5313;48.834;9.228;2023-04-03T06:10:23;2.53;;;1.80;;
10529;SDS011;5313;48.834;9.228;2023-04-03T06:12:49;3.93;;;2.20;;
10529;SDS011;5313;48.834;9.228;2023-04-03T06:15:15;3.27;;;1.93;;
10529;SDS011;5313;48.834;9.228;2023-04-03T06:17:41;4.43;;;2.20;;
10529;SDS011;5313;48.834;9.228;2023-04-03T06:20:07;3.73;;;2.10;;
10529;SDS011;5313;48.834;9.228;2023-04-03T06:22:34;3.60;;;2.17;;
10529;SDS011;5313;48.834;9.228;2023-04-03T06:25:00;4.20;;;2.67;;
10529;SDS011;5313;48.834;9.228;2023-04-03T06:27:25;3.83;;;2.30;;
10529;SDS011;5313;48.834;9.228;2023-04-03T06:29:51;2.40;;;2.07;;
10529;SDS011;5313;48.834;9.228;2023-04-03T06:32:16;2.80;;;2.17;;
10529;SDS011;5313;48.834;9.228;2023-04-03T06:34:42;5.03;;;2.80;;
10529;SDS011;5313;48.834;9.228;2023-04-03T06:37:26;2.90;;;1.97;;
10529;SDS011;5313;48.834;9.228;2023-04-03T06:39:53;2.27;;;2.03;;
10529;SDS011;5313;48.834;9.228;2023-04-03T06:42:18;5.90;;;2.80;;
10529;SDS011;5313;48.834;9.228;2023-04-03T06:44:44;3.27;;;2.20;;
10529;SDS011;5313;48.834;9.228;2023-04-03T06:47:11;3.03;;;1.90;;
10529;SDS011;5313;48.834;9.228;2023-04-03T06:49:38;3.17;;;2.20;;
10529;SDS011;5313;48.834;9.228;2023-04-03T06:52:04;4.30;;;2.27;;
10529;SDS011;5313;48.834;9.228;2023-04-03T06:54:30;3.53;;;2.13;;
10529;SDS011;5313;48.834;9.228;2023-04-03T06:56:55;6.97;;;2.77;;
10529;SDS011;5313;48.834;9.228;2023-04-03T06:59:21;3.00;;;2.40;;
10529;SDS011;5313;48.834;9.228;2023-04-03T07:01:47;3.07;;;2.57;;
10529;SDS011;5313;48.834;9.228;2023-04-03T07:04:13;3.17;;;2.17;;
10529;SDS011;5313;48.834;9.228;2023-04-03T07:06:39;3.43;;;2.23;;
10529;SDS011;5313;48.834;9.228;2023-04-03T07:09:05;4.60;;;2.10;;
10529;SDS011;5313;48.834;9.228;2023-04-03T07:11:31;4.47;;;2.20;;
10529;SDS011;5313;48.834;9.228;2023-04-03T07:13:56;3.27;;;2.10;;
10529;SDS011;5313;48.834;9.228;2023-04-03T07:16:22;3.73;;;2.50;;
10529;SDS011;5313;48.834;9.228;2023-04-03T07:18:48;3.93;;;2.20;;
10529;SDS011;5313;48.834;9.228;2023-04-03T07:21:13;5.00;;;2.67;;
10529;SDS011;5313;48.834;9.228;2023-04-03T07:23:39;3.17;;;2.20;;
10529;SDS011;5313;48.834;9.228;2023-04-03T07:26:05;3.77;;;2.33;;
10529;SDS011;5313;48.834;9.228;2023-04-03T07:28:31;5.60;;;2.40;;
10529;SDS011;5313;48.834;9.228;2023-04-03T07:31:01;2.80;;;2.20;;
10529;SDS011;5313;48.834;9.228;2023-04-03T07:33:33;4.23;;;2.53;;
10529;SDS011;5313;48.834;9.228;2023-04-03T07:36:00;4.93;;;2.23;;
10529;SDS011;5313;48.834;9.228;2023-04-03T07:38:26;3.70;;;2.43;;
10529;SDS011;5313;48.834;9.228;2023-04-03T07:40:52;5.60;;;2.20;;
10529;SDS011;5313;48.834;9.228;2023-04-03T07:43:18;3.97;;;2.67;;
10529;SDS011;5313;48.834;9.228;2023-04-03T07:45:45;4.90;;;2.30;;
10529;SDS011;5313;48.834;9.228;2023-04-03T07:48:12;3.43;;;2.43;;
10529;SDS011;5313;48.834;9.228;2023-04-03T07:50:41;5.50;;;2.50;;
10529;SDS011;5313;48.834;9.228;2023-04-03T07:53:07;3.33;;;2.10;;
10529;SDS011;5313;48.834;9.228;2023-04-03T07:55:33;3.83;;;2.67;;
10529;SDS011;5313;48.834;9.228;2023-04-03T07:57:58;4.80;;;2.33;;
10529;SDS011;5313;48.834;9.228;2023-04-03T08:00:24;5.13;;;2.40;;
10529;SDS011;5313;48.834;9.228;2023-04-03T08:02:50;2.67;;;2.00;;
10529;SDS011;5313;48.834;9.228;2023-04-03T08:05:20;4.03;;;2.30;;
10529;SDS011;5313;48.834;9.228;2023-04-03T08:07:46;3.17;;;2.00;;
10529;SDS011;5313;48.834;9.228;2023-04-03T08:10:12;4.87;;;2.50;;
10529;SDS011;5313;48.834;9.228;2023-04-03T08:12:39;3.00;;;2.17;;
10529;SDS011;5313;48.834;9.228;2023-04-03T08:15:05;3.87;;;2.10;;
10529;SDS011;5313;48.834;9.228;2023-04-03T08:17:33;3.90;;;2.60;;
10529;SDS011;5313;48.834;9.228;2023-04-03T08:19:59;8.70;;;2.40;;
10529;SDS011;5313;48.834;9.228;2023-04-03T08:22:25;2.70;;;2.00;;
10529;SDS011;5313;48.834;9.228;2023-04-03T08:24:51;3.17;;;2.17;;
10529;SDS011;5313;48.834;9.228;2023-04-03T08:27:16;2.80;;;1.97;;
10529;SDS011;5313;48.834;9.228;2023-04-03T08:29:42;4.80;;;2.50;;
10529;SDS011;5313;48.834;9.228;2023-04-03T08:32:07;3.13;;;2.23;;
10529;SDS011;5313;48.834;9.228;2023-04-03T08:34:33;5.93;;;2.30;;
10529;SDS011;5313;48.834;9.228;2023-04-03T08:37:00;4.80;;;2.23;;
10529;SDS011;5313;48.834;9.228;2023-04-03T08:39:26;5.13;;;2.43;;
10529;SDS011;5313;48.834;9.228;2023-04-03T08:41:52;4.93;;;2.17;;
10529;SDS011;5313;48.834;9.228;2023-04-03T08:44:25;5.13;;;2.40;;
10529;SDS011;5313;48.834;9.228;2023-04-03T08:49:31;4.53;;;2.40;;
10529;SDS011;5313;48.834;9.228;2023-04-03T08:52:04;4.57;;;2.27;;
10529;SDS011;5313;48.834;9.228;2023-04-03T08:54:37;5.00;;;2.40;;
10529;SDS011;5313;48.834;9.228;2023-04-03T08:57:20;4.47;;;2.20;;
10529;SDS011;5313;48.834;9.228;2023-04-03T08:59:54;3.10;;;2.13;;
10529;SDS011;5313;48.834;9.228;2023-04-03T09:02:31;4.43;;;2.07;;
10529;SDS011;5313;48.834;9.228;2023-04-03T09:05:17;4.00;;;2.30;;
10529;SDS011;5313;48.834;9.228;2023-04-03T09:08:04;3.33;;;2.57;;
10529;SDS011;5313;48.834;9.228;2023-04-03T09:10:43;4.70;;;2.10;;
10529;SDS011;5313;48.834;9.228;2023-04-03T09:16:02;3.70;;;2.20;;
10529;SDS011;5313;48.834;9.228;2023-04-03T09:18:36;4.23;;;2.17;;
10529;SDS011;5313;48.834;9.228;2023-04-03T09:21:17;5.10;;;2.47;;
10529;SDS011;5313;48.834;9.228;2023-04-03T09:23:53;3.37;;;1.93;;
10529;SDS011;5313;48.834;9.228;2023-04-03T09:26:24;3.47;;;1.80;;
10529;SDS011;5313;48.834;9.228;2023-04-03T09:28:54;2.80;;;2.07;;
10529;SDS011;5313;48.834;9.228;2023-04-03T09:31:26;5.33;;;1.90;;
10529;SDS011;5313;48.834;9.228;2023-04-03T09:34:05;3.50;;;1.80;;
10529;SDS011;5313;48.834;9.228;2023-04-03T09:36:41;2.77;;;2.20;;
10529;SDS011;5313;48.834;9.228;2023-04-03T09:39:11;3.90;;;2.17;;
10529;SDS011;5313;48.834;9.228;2023-04-03T09:41:39;3.33;;;1.80;;
10529;SDS011;5313;48.834;9.228;2023-04-03T09:44:17;3.13;;;1.87;;
10529;SDS011;5313;48.834;9.228;2023-04-03T09:46:49;3.43;;;1.80;;
10529;SDS011;5313;48.834;9.228;2023-04-03T09:49:15;3.70;;;1.90;;
10529;SDS011;5313;48.834;9.228;2023-04-03T09:51:42;2.70;;;2.03;;
10529;SDS011;5313;48.834;9.228;2023-04-03T09:57:06;3.70;;;1.93;;
10529;SDS011;5313;48.834;9.228;2023-04-03T09:59:35;3.10;;;2.00;;
10529;SDS011;5313;48.834;9.228;2023-04-03T10:02:04;3.43;;;2.10;;
10529;SDS011;5313;48.834;9.228;2023-04-03T10:04:53;3.53;;;2.07;;
10529;SDS011;5313;48.834;9.228;2023-04-03T10:07:32;2.77;;;1.67;;
10529;SDS011;5313;48.834;9.228;2023-04-03T10:12:39;2.50;;;1.80;;
10529;SDS011;5313;48.834;9.228;2023-04-03T10:15:11;3.17;;;1.93;;
10529;SDS011;5313;48.834;9.228;2023-04-03T10:22:56;3.23;;;2.00;;
10529;SDS011;5313;48.834;9.228;2023-04-03T10:28:42;4.07;;;2.00;;
10529;SDS011;5313;48.834;9.228;2023-04-03T10:34:07;2.63;;;1.90;;
10529;SDS011;5313;48.834;9.228;2023-04-03T10:37:01;3.83;;;1.93;;
10529;SDS011;5313;48.834;9.228;2023-04-03T10:39:39;3.40;;;1.87;;
10529;SDS011;5313;48.834;9.228;2023-04-03T10:42:37;1.97;;;1.53;;
10529;SDS011;5313;48.834;9.228;2023-04-03T10:45:31;8.47;;;2.43;;
10529;SDS011;5313;48.834;9.228;2023-04-03T10:48:25;2.43;;;1.33;;
10529;SDS011;5313;48.834;9.228;2023-04-03T10:53:48;3.67;;;1.50;;
10529;SDS011;5313;48.834;9.228;2023-04-03T10:56:27;4.90;;;1.73;;
10529;SDS011;5313;48.834;9.228;2023-04-03T11:01:48;2.60;;;1.83;;
10529;SDS011;5313;48.834;9.228;2023-04-03T11:04:19;4.23;;;2.33;;
10529;SDS011;5313;48.834;9.228;2023-04-03T11:06:48;1.67;;;1.27;;
10529;SDS011;5313;48.834;9.228;2023-04-03T11:09:19;2.10;;;1.20;;
10529;SDS011;5313;48.834;9.228;2023-04-03T11:11:51;2.27;;;1.40;;
10529;SDS011;5313;48.834;9.228;2023-04-03T11:14:28;2.27;;;1.40;;
10529;SDS011;5313;48.834;9.228;2023-04-03T11:19:51;6.13;;;1.57;;
10529;SDS011;5313;48.834;9.228;2023-04-03T11:25:24;3.17;;;1.37;;
10529;SDS011;5313;48.834;9.228;2023-04-03T11:27:53;4.97;;;1.60;;
10529;SDS011;5313;48.834;9.228;2023-04-03T11:30:28;3.07;;;1.67;;
10529;SDS011;5313;48.834;9.228;2023-04-03T11:35:42;3.43;;;1.80;;
10529;SDS011;5313;48.834;9.228;2023-04-03T11:38:21;1.70;;;1.50;;
10529;SDS011;5313;48.834;9.228;2023-04-03T11:40:54;2.80;;;1.87;;
10529;SDS011;5313;48.834;9.228;2023-04-03T11:45:55;3.13;;;1.50;;
10529;SDS011;5313;48.834;9.228;2023-04-03T11:53:37;3.70;;;2.30;;
10529;SDS011;5313;48.834;9.228;2023-04-03T11:59:15;3.30;;;1.83;;
10529;SDS011;5313;48.834;9.228;2023-04-03T12:01:43;3.03;;;1.63;;
10529;SDS011;5313;48.834;9.228;2023-04-03T12:04:10;2.60;;;1.70;;
10529;SDS011;5313;48.834;9.228;2023-04-03T12:09:15;3.10;;;1.90;;
10529;SDS011;5313;48.834;9.228;2023-04-03T12:11:49;1.63;;;1.47;;
10529;SDS011;5313;48.834;9.228;2023-04-03T12:14:16;4.17;;;1.70;;
10529;SDS011;5313;48.834;9.228;2023-04-03T12:16:43;2.73;;;1.43;;
10529;SDS011;5313;48.834;9.228;2023-04-03T12:43:20;4.00;;;1.60;;
10529;SDS011;5313;48.834;9.228;2023-04-03T12:48:34;4.07;;;1.70;;
10529;SDS011;5313;48.834;9.228;2023-04-03T12:51:03;3.53;;;1.70;;
10529;SDS011;5313;48.834;9.228;2023-04-03T12:53:34;3.00;;;1.60;;
10529;SDS011;5313;48.834;9.228;2023-04-03T12:56:20;2.53;;;1.63;;
10529;SDS011;5313;48.834;9.228;2023-04-03T12:58:49;2.60;;;1.60;;
10529;SDS011;5313;48.834;9.228;2023-04-03T13:01:17;2.77;;;1.70;;
10529;SDS011;5313;48.834;9.228;2023-04-03T13:03:47;2.17;;;1.60;;
10529;SDS011;5313;48.834;9.228;2023-04-03T13:06:30;2.07;;;1.83;;
10529;SDS011;5313;48.834;9.228;2023-04-03T13:09:02;1.73;;;1.40;;
10529;SDS011;5313;48.834;9.228;2023-04-03T13:11:39;2.60;;;1.50;;
10529;SDS011;5313;48.834;9.228;2023-04-03T13:14:17;2.33;;;1.30;;
10529;SDS011;5313;48.834;9.228;2023-04-03T13:19:34;3.70;;;1.73;;
10529;SDS011;5313;48.834;9.228;2023-04-03T13:22:01;2.27;;;1.50;;
10529;SDS011;5313;48.834;9.228;2023-04-03T13:24:30;4.23;;;1.73;;
10529;SDS011;5313;48.834;9.228;2023-04-03T13:26:59;3.50;;;1.70;;
10529;SDS011;5313;48.834;9.228;2023-04-03T13:29:32;3.37;;;1.60;;
10529;SDS011;5313;48.834;9.228;2023-04-03T13:32:00;1.93;;;1.70;;
10529;SDS011;5313;48.834;9.228;2023-04-03T13:34:29;2.50;;;1.50;;
10529;SDS011;5313;48.834;9.228;2023-04-03T13:37:03;2.97;;;1.63;;
10529;SDS011;5313;48.834;9.228;2023-04-03T13:39:33;3.03;;;1.70;;
10529;SDS011;5313;48.834;9.228;2023-04-03T13:42:01;2.33;;;1.40;;
10529;SDS011;5313;48.834;9.228;2023-04-03T13:44:41;3.33;;;1.80;;
10529;SDS011;5313;48.834;9.228;2023-04-03T13:49:40;3.47;;;1.67;;
10529;SDS011;5313;48.834;9.228;2023-04-03T13:52:27;3.17;;;1.80;;
10529;SDS011;5313;48.834;9.228;2023-04-03T13:55:02;4.07;;;1.60;;
10529;SDS011;5313;48.834;9.228;2023-04-03T13:57:50;2.53;;;1.57;;
10529;SDS011;5313;48.834;9.228;2023-04-03T14:00:36;3.83;;;1.90;;
10529;SDS011;5313;48.834;9.228;2023-04-03T14:04:09;3.30;;;1.97;;
10529;SDS011;5313;48.834;9.228;2023-04-03T14:06:13;2.97;;;1.77;;
10529;SDS011;5313;48.834;9.228;2023-04-03T14:08:41;3.27;;;2.50;;
10529;SDS011;5313;48.834;9.228;2023-04-03T14:11:14;3.20;;;1.77;;
10529;SDS011;5313;48.834;9.228;2023-04-03T14:13:43;3.90;;;1.70;;
10529;SDS011;5313;48.834;9.228;2023-04-03T14:16:12;2.70;;;1.70;;
10529;SDS011;5313;48.834;9.228;2023-04-03T14:18:39;2.33;;;1.60;;
10529;SDS011;5313;48.834;9.228;2023-04-03T14:21:05;2.70;;;1.50;;
10529;SDS011;5313;48.834;9.228;2023-04-03T14:23:31;1.80;;;1.50;;
10529;SDS011;5313;48.834;9.228;2023-04-03T14:25:57;2.43;;;1.70;;
10529;SDS011;5313;48.834;9.228;2023-04-03T14:28:25;2.17;;;1.50;;
10529;SDS011;5313;48.834;9.228;2023-04-03T14:30:50;2.90;;;1.83;;
10529;SDS011;5313;48.834;9.228;2023-04-03T14:33:17;2.50;;;1.73;;
10529;SDS011;5313;48.834;9.228;2023-04-03T14:35:46;2.10;;;1.50;;
10529;SDS011;5313;48.834;9.228;2023-04-03T14:38:25;2.13;;;1.70;;
10529;SDS011;5313;48.834;9.228;2023-04-03T14:40:54;3.50;;;1.60;;
10529;SDS011;5313;48.834;9.228;2023-04-03T14:43:20;4.43;;;1.43;;
10529;SDS011;5313;48.834;9.228;2023-04-03T14:45:47;5.13;;;1.30;;
10529;SDS011;5313;48.834;9.228;2023-04-03T14:48:21;4.03;;;1.50;;
10529;SDS011;5313;48.834;9.228;2023-04-03T14:50:48;2.27;;;1.70;;
10529;SDS011;5313;48.834;9.228;2023-04-03T14:53:15;1.90;;;1.40;;
10529;SDS011;5313;48.834;9.228;2023-04-03T14:55:44;1.97;;;1.57;;
10529;SDS011;5313;48.834;9.228;2023-04-03T14:58:12;3.20;;;1.50;;
10529;SDS011;5313;48.834;9.228;2023-04-03T15:00:40;2.97;;;1.60;;
10529;SDS011;5313;48.834;9.228;2023-04-03T15:03:09;2.93;;;1.30;;
10529;SDS011;5313;48.834;9.228;2023-04-03T15:05:38;2.30;;;1.57;;
10529;SDS011;5313;48.834;9.228;2023-04-03T15:08:03;2.30;;;1.40;;
10529;SDS011;5313;48.834;9.228;2023-04-03T15:10:29;2.63;;;1.60;;
10529;SDS011;5313;48.834;9.228;2023-04-03T15:12:56;3.43;;;1.77;;
10529;SDS011;5313;48.834;9.228;2023-04-03T15:15:23;2.67;;;1.87;;
10529;SDS011;5313;48.834;9.228;2023-04-03T15:17:53;5.20;;;1.43;;
10529;SDS011;5313;48.834;9.228;2023-04-03T15:20:23;1.73;;;1.33;;
10529;SDS011;5313;48.834;9.228;2023-04-03T15:22:51;2.67;;;1.70;;
10529;SDS011;5313;48.834;9.228;2023-04-03T15:25:16;3.40;;;1.60;;
10529;SDS011;5313;48.834;9.228;2023-04-03T15:27:43;2.93;;;1.47;;
10529;SDS011;5313;48.834;9.228;2023-04-03T15:30:12;1.80;;;1.30;;
10529;SDS011;5313;48.834;9.228;2023-04-03T15:32:41;2.73;;;1.50;;
10529;SDS011;5313;48.834;9.228;2023-04-03T15:35:07;2.07;;;1.17;;
10529;SDS011;5313;48.834;9.228;2023-04-03T15:37:33;2.63;;;1.67;;
10529;SDS011;5313;48.834;9.228;2023-04-03T15:39:58;2.10;;;1.60;;
10529;SDS011;5313;48.834;9.228;2023-04-03T15:42:24;3.57;;;1.67;;
10529;SDS011;5313;48.834;9.228;2023-04-03T15:44:50;2.87;;;1.60;;
10529;SDS011;5313;48.834;9.228;2023-04-03T15:47:15;2.53;;;1.67;;
10529;SDS011;5313;48.834;9.228;2023-04-03T15:49:41;3.23;;;1.50;;
10529;SDS011;5313;48.834;9.228;2023-04-03T15:52:07;2.83;;;1.70;;
10529;SDS011;5313;48.834;9.228;2023-04-03T15:54:32;2.47;;;1.50;;
10529;SDS011;5313;48.834;9.228;2023-04-03T15:56:58;3.00;;;1.60;;
10529;SDS011;5313;48.834;9.228;2023-04-03T15:59:24;2.53;;;1.70;;
10529;SDS011;5313;48.834;9.228;2023-04-03T16:01:49;2.27;;;1.40;;
10529;SDS011;5313;48.834;9.228;2023-04-03T16:04:16;2.53;;;1.70;;
10529;SDS011;5313;48.834;9.228;2023-04-03T16:06:45;2.33;;;1.70;;
10529;SDS011;5313;48.834;9.228;2023-04-03T16:09:10;4.33;;;1.60;;
10529;SDS011;5313;48.834;9.228;2023-04-03T16:11:36;1.80;;;1.60;;
10529;SDS011;5313;48.834;9.228;2023-04-03T16:14:04;2.27;;;1.50;;
10529;SDS011;5313;48.834;9.228;2023-04-03T16:16:30;3.23;;;1.70;;
10529;SDS011;5313;48.834;9.228;2023-04-03T16:18:56;4.53;;;1.70;;
10529;SDS011;5313;48.834;9.228;2023-04-03T16:21:21;3.00;;;1.63;;
10529;SDS011;5313;48.834;9.228;2023-04-03T16:23:48;2.30;;;1.63;;
10529;SDS011;5313;48.834;9.228;2023-04-03T16:26:14;3.10;;;1.60;;
10529;SDS011;5313;48.834;9.228;2023-04-03T16:28:40;2.77;;;1.43;;
10529;SDS011;5313;48.834;9.228;2023-04-03T16:31:06;4.67;;;2.20;;
10529;SDS011;5313;48.834;9.228;2023-04-03T16:33:32;2.33;;;1.73;;
10529;SDS011;5313;48.834;9.228;2023-04-03T16:35:59;2.37;;;1.70;;
10529;SDS011;5313;48.834;9.228;2023-04-03T16:38:24;2.13;;;1.40;;
10529;SDS011;5313;48.834;9.228;2023-04-03T16:40:50;2.63;;;1.80;;